sensor_id;sensor_type;location;lat;lon;timestamp;pressure;altitude;pressure_sealevel;temperature;humidity
48882;BME280;57063;51.406;-2.402;2023-04-06T00:01:10;100395.03;;;8.14;100.00
48882;BME280;57063;51.406;-2.402;2023-04-06T00:03:36;100400.13;;;8.15;100.00
48882;BME280;57063;51.406;-2.402;2023-04-06T00:06:02;100399.97;;;8.19;100.00
48882;BME280;57063;51.406;-2.402;2023-04-06T00:08:28;100390.88;;;8.11;100.00
48882;BME280;57063;51.406;-2.402;2023-04-06T00:10:54;100393.34;;;8.14;100.00
48882;BME280;57063;51.406;-2.402;2023-04-06T00:13:19;100390.00;;;8.12;100.00
48882;BME280;57063;51.406;-2.402;2023-04-06T00:15:45;100378.94;;;8.10;100.00
48882;BME280;57063;51.406;-2.402;2023-04-06T00:18:10;100377.81;;;8.16;100.00
48882;BME280;57063;51.406;-2.402;2023-04-06T00:20:36;100373.72;;;8.12;100.00
48882;BME280;57063;51.406;-2.402;2023-04-06T00:23:01;100391.38;;;8.20;100.00
48882;BME280;57063;51.406;-2.402;2023-04-06T00:25:27;100386.06;;;8.23;100.00
48882;BME280;57063;51.406;-2.402;2023-04-06T00:27:52;100369.34;;;8.14;100.00
48882;BME280;57063;51.406;-2.402;2023-04-06T00:30:18;100370.81;;;8.20;100.00
48882;BME280;57063;51.406;-2.402;2023-04-06T00:32:44;100369.56;;;8.09;100.00
48882;BME280;57063;51.406;-2.402;2023-04-06T00:35:09;100362.94;;;8.23;100.00
48882;BME280;57063;51.406;-2.402;2023-04-06T00:37:35;100352.19;;;8.14;100.00
48882;BME280;57063;51.406;-2.402;2023-04-06T00:40:01;100359.75;;;8.18;100.00
48882;BME280;57063;51.406;-2.402;2023-04-06T00:42:26;100359.59;;;8.21;100.00
48882;BME280;57063;51.406;-2.402;2023-04-06T00:44:53;100352.19;;;8.14;100.00
48882;BME280;57063;51.406;-2.402;2023-04-06T00:47:18;100354.53;;;8.19;100.00
48882;BME280;57063;51.406;-2.402;2023-04-06T00:49:44;100345.97;;;8.19;100.00
48882;BME280;57063;51.406;-2.402;2023-04-06T00:52:09;100346.13;;;8.15;100.00
48882;BME280;57063;51.406;-2.402;2023-04-06T00:54:35;100337.38;;;8.20;100.00
48882;BME280;57063;51.406;-2.402;2023-04-06T00:57:00;100330.00;;;8.12;100.00
48882;BME280;57063;51.406;-2.402;2023-04-06T00:59:27;100332.59;;;8.12;100.00
48882;BME280;57063;51.406;-2.402;2023-04-06T01:01:52;100337.50;;;8.17;100.00
48882;BME280;57063;51.406;-2.402;2023-04-06T01:04:18;100327.16;;;8.18;100.00
48882;BME280;57063;51.406;-2.402;2023-04-06T01:06:44;100322.78;;;8.20;100.00
48882;BME280;57063;51.406;-2.402;2023-04-06T01:09:10;100321.34;;;8.14;100.00
48882;BME280;57063;51.406;-2.402;2023-04-06T01:11:35;100318.91;;;8.29;100.00
48882;BME280;57063;51.406;-2.402;2023-04-06T01:14:01;100322.31;;;8.29;100.00
48882;BME280;57063;51.406;-2.402;2023-04-06T01:16:26;100317.47;;;8.23;100.00
48882;BME280;57063;51.406;-2.402;2023-04-06T01:18:52;100310.59;;;8.24;100.00
48882;BME280;57063;51.406;-2.402;2023-04-06T01:21:17;100313.03;;;8.27;100.00
48882;BME280;57063;51.406;-2.402;2023-04-06T01:23:45;100313.03;;;8.27;100.00
48882;BME280;57063;51.406;-2.402;2023-04-06T01:26:12;100303.56;;;8.27;100.00
48882;BME280;57063;51.406;-2.402;2023-04-06T01:28:37;100307.03;;;8.26;100.00
48882;BME280;57063;51.406;-2.402;2023-04-06T01:31:04;100305.31;;;8.27;100.00
48882;BME280;57063;51.406;-2.402;2023-04-06T01:33:29;100301.00;;;8.27;100.00
48882;BME280;57063;51.406;-2.402;2023-04-06T01:35:55;100294.78;;;8.31;100.00
48882;BME280;57063;51.406;-2.402;2023-04-06T01:38:20;100291.53;;;8.28;100.00
48882;BME280;57063;51.406;-2.402;2023-04-06T01:40:46;100287.31;;;8.27;100.00
48882;BME280;57063;51.406;-2.402;2023-04-06T01:43:11;100294.63;;;8.34;100.00
48882;BME280;57063;51.406;-2.402;2023-04-06T01:45:37;100295.16;;;8.24;100.00
48882;BME280;57063;51.406;-2.402;2023-04-06T01:48:03;100287.31;;;8.27;100.00
48882;BME280;57063;51.406;-2.402;2023-04-06T01:50:28;100281.53;;;8.22;100.00
48882;BME280;57063;51.406;-2.402;2023-04-06T01:52:53;100284.75;;;8.27;100.00
48882;BME280;57063;51.406;-2.402;2023-04-06T01:55:20;100273.09;;;8.20;100.00
48882;BME280;57063;51.406;-2.402;2023-04-06T01:57:45;100286.41;;;8.28;100.00
48882;BME280;57063;51.406;-2.402;2023-04-06T02:00:11;100274.59;;;8.24;100.00
48882;BME280;57063;51.406;-2.402;2023-04-06T02:02:37;100277.31;;;8.21;100.00
48882;BME280;57063;51.406;-2.402;2023-04-06T02:05:02;100272.78;;;8.26;100.00
48882;BME280;57063;51.406;-2.402;2023-04-06T02:07:28;100275.06;;;8.32;100.00
48882;BME280;57063;51.406;-2.402;2023-04-06T02:09:54;100274.28;;;8.30;100.00
48882;BME280;57063;51.406;-2.402;2023-04-06T02:12:20;100272.16;;;8.38;100.00
48882;BME280;57063;51.406;-2.402;2023-04-06T02:14:46;100272.50;;;8.32;100.00
48882;BME280;57063;51.406;-2.402;2023-04-06T02:17:11;100274.97;;;8.33;100.00
48882;BME280;57063;51.406;-2.402;2023-04-06T02:19:36;100275.72;;;8.35;100.00
48882;BME280;57063;51.406;-2.402;2023-04-06T02:22:02;100295.31;;;8.55;100.00
48882;BME280;57063;51.406;-2.402;2023-04-06T02:24:27;100290.31;;;8.52;100.00
48882;BME280;57063;51.406;-2.402;2023-04-06T02:26:53;100303.31;;;8.83;100.00
48882;BME280;57063;51.406;-2.402;2023-04-06T02:29:18;100305.72;;;8.70;100.00
48882;BME280;57063;51.406;-2.402;2023-04-06T02:31:43;100285.88;;;8.72;100.00
48882;BME280;57063;51.406;-2.402;2023-04-06T02:34:09;100293.03;;;8.67;100.00
48882;BME280;57063;51.406;-2.402;2023-04-06T02:36:37;100283.78;;;8.63;100.00
48882;BME280;57063;51.406;-2.402;2023-04-06T02:39:02;100287.28;;;8.62;100.00
48882;BME280;57063;51.406;-2.402;2023-04-06T02:41:28;100285.94;;;8.54;100.00
48882;BME280;57063;51.406;-2.402;2023-04-06T02:43:53;100277.63;;;8.49;100.00
48882;BME280;57063;51.406;-2.402;2023-04-06T02:46:19;100277.16;;;8.41;100.00
48882;BME280;57063;51.406;-2.402;2023-04-06T02:48:45;100279.88;;;8.38;100.00
48882;BME280;57063;51.406;-2.402;2023-04-06T02:51:10;100276.28;;;8.42;100.00
48882;BME280;57063;51.406;-2.402;2023-04-06T02:53:36;100263.84;;;8.33;100.00
48882;BME280;57063;51.406;-2.402;2023-04-06T02:56:01;100258.19;;;8.26;100.00
48882;BME280;57063;51.406;-2.402;2023-04-06T02:58:27;100256.59;;;8.24;100.00
48882;BME280;57063;51.406;-2.402;2023-04-06T03:00:52;100244.72;;;8.21;100.00
48882;BME280;57063;51.406;-2.402;2023-04-06T03:03:17;100234.06;;;8.11;100.00
48882;BME280;57063;51.406;-2.402;2023-04-06T03:05:43;100228.34;;;8.06;100.00
48882;BME280;57063;51.406;-2.402;2023-04-06T03:08:08;100215.81;;;8.00;100.00
48882;BME280;57063;51.406;-2.402;2023-04-06T03:10:33;100216.81;;;7.98;100.00
48882;BME280;57063;51.406;-2.402;2023-04-06T03:12:59;100219.44;;;7.96;100.00
48882;BME280;57063;51.406;-2.402;2023-04-06T03:15:24;100203.41;;;7.91;100.00
48882;BME280;57063;51.406;-2.402;2023-04-06T03:17:50;100199.66;;;7.81;100.00
48882;BME280;57063;51.406;-2.402;2023-04-06T03:20:15;100212.19;;;7.87;100.00
48882;BME280;57063;51.406;-2.402;2023-04-06T03:22:41;100202.50;;;7.75;100.00
48882;BME280;57063;51.406;-2.402;2023-04-06T03:25:06;100187.47;;;7.67;100.00
48882;BME280;57063;51.406;-2.402;2023-04-06T03:27:32;100189.91;;;7.53;100.00
48882;BME280;57063;51.406;-2.402;2023-04-06T03:29:57;100179.09;;;7.46;100.00
48882;BME280;57063;51.406;-2.402;2023-04-06T03:32:23;100189.13;;;7.33;100.00
48882;BME280;57063;51.406;-2.402;2023-04-06T03:34:48;100178.31;;;7.26;100.00
48882;BME280;57063;51.406;-2.402;2023-04-06T03:37:14;100168.19;;;7.23;100.00
48882;BME280;57063;51.406;-2.402;2023-04-06T03:39:39;100155.44;;;7.22;100.00
48882;BME280;57063;51.406;-2.402;2023-04-06T03:42:05;100175.44;;;7.15;100.00
48882;BME280;57063;51.406;-2.402;2023-04-06T03:44:31;100184.94;;;7.13;100.00
48882;BME280;57063;51.406;-2.402;2023-04-06T03:46:57;100193.63;;;7.11;100.00
48882;BME280;57063;51.406;-2.402;2023-04-06T03:49:22;100187.19;;;7.19;100.00
48882;BME280;57063;51.406;-2.402;2023-04-06T03:51:47;100194.66;;;7.43;100.00
48882;BME280;57063;51.406;-2.402;2023-04-06T03:54:13;100214.75;;;7.52;100.00
48882;BME280;57063;51.406;-2.402;2023-04-06T03:56:38;100210.06;;;7.60;100.00
48882;BME280;57063;51.406;-2.402;2023-04-06T03:59:04;100220.97;;;7.83;100.00
48882;BME280;57063;51.406;-2.402;2023-04-06T04:01:29;100208.03;;;7.67;100.00
48882;BME280;57063;51.406;-2.402;2023-04-06T04:03:55;100213.00;;;7.70;100.00
48882;BME280;57063;51.406;-2.402;2023-04-06T04:06:20;100213.56;;;7.77;100.00
48882;BME280;57063;51.406;-2.402;2023-04-06T04:08:46;100210.97;;;7.94;100.00
48882;BME280;57063;51.406;-2.402;2023-04-06T04:11:11;100202.59;;;7.90;100.00
48882;BME280;57063;51.406;-2.402;2023-04-06T04:13:36;100206.44;;;7.82;100.00
48882;BME280;57063;51.406;-2.402;2023-04-06T04:16:02;100197.22;;;7.95;100.00
48882;BME280;57063;51.406;-2.402;2023-04-06T04:18:27;100194.88;;;7.90;100.00
48882;BME280;57063;51.406;-2.402;2023-04-06T04:20:53;100202.81;;;7.86;100.00
48882;BME280;57063;51.406;-2.402;2023-04-06T04:23:18;100194.97;;;7.71;100.00
48882;BME280;57063;51.406;-2.402;2023-04-06T04:25:43;100202.44;;;7.76;100.00
48882;BME280;57063;51.406;-2.402;2023-04-06T04:28:09;100204.19;;;7.93;100.00
48882;BME280;57063;51.406;-2.402;2023-04-06T04:30:34;100202.03;;;8.01;100.00
48882;BME280;57063;51.406;-2.402;2023-04-06T04:33:00;100200.06;;;8.06;100.00
48882;BME280;57063;51.406;-2.402;2023-04-06T04:35:26;100198.66;;;8.01;100.00
48882;BME280;57063;51.406;-2.402;2023-04-06T04:37:51;100197.22;;;7.95;100.00
48882;BME280;57063;51.406;-2.402;2023-04-06T04:40:17;100178.78;;;7.87;100.00
48882;BME280;57063;51.406;-2.402;2023-04-06T04:42:42;100184.91;;;7.84;100.00
48882;BME280;57063;51.406;-2.402;2023-04-06T04:45:08;100183.84;;;7.88;100.00
48882;BME280;57063;51.406;-2.402;2023-04-06T04:47:33;100181.50;;;7.84;100.00
48882;BME280;57063;51.406;-2.402;2023-04-06T04:49:59;100169.81;;;7.78;100.00
48882;BME280;57063;51.406;-2.402;2023-04-06T04:52:24;100171.53;;;7.78;100.00
48882;BME280;57063;51.406;-2.402;2023-04-06T04:54:50;100172.59;;;7.91;100.00
48882;BME280;57063;51.406;-2.402;2023-04-06T04:57:15;100173.81;;;7.84;100.00
48882;BME280;57063;51.406;-2.402;2023-04-06T04:59:42;100174.78;;;7.81;100.00
48882;BME280;57063;51.406;-2.402;2023-04-06T05:02:08;100177.88;;;7.88;100.00
48882;BME280;57063;51.406;-2.402;2023-04-06T05:04:33;100186.84;;;7.97;100.00
48882;BME280;57063;51.406;-2.402;2023-04-06T05:07:06;100181.81;;;7.95;100.00
48882;BME280;57063;51.406;-2.402;2023-04-06T05:09:32;100176.97;;;7.89;100.00
48882;BME280;57063;51.406;-2.402;2023-04-06T05:11:58;100176.81;;;7.92;100.00
48882;BME280;57063;51.406;-2.402;2023-04-06T05:14:24;100159.09;;;8.03;100.00
48882;BME280;57063;51.406;-2.402;2023-04-06T05:16:49;100176.81;;;7.92;100.00
48882;BME280;57063;51.406;-2.402;2023-04-06T05:19:15;100178.28;;;8.13;100.00
48882;BME280;57063;51.406;-2.402;2023-04-06T05:21:41;100175.53;;;8.17;100.00
48882;BME280;57063;51.406;-2.402;2023-04-06T05:24:06;100180.84;;;8.13;100.00
48882;BME280;57063;51.406;-2.402;2023-04-06T05:26:32;100179.84;;;8.00;100.00
48882;BME280;57063;51.406;-2.402;2023-04-06T05:28:57;100181.09;;;8.09;100.00
48882;BME280;57063;51.406;-2.402;2023-04-06T05:31:23;100183.47;;;7.96;100.00
48882;BME280;57063;51.406;-2.402;2023-04-06T05:33:48;100185.88;;;7.99;100.00
48882;BME280;57063;51.406;-2.402;2023-04-06T05:36:14;100180.34;;;7.89;100.00
48882;BME280;57063;51.406;-2.402;2023-04-06T05:38:39;100169.09;;;7.92;100.00
48882;BME280;57063;51.406;-2.402;2023-04-06T05:41:05;100184.66;;;8.06;100.00
48882;BME280;57063;51.406;-2.402;2023-04-06T05:43:31;100186.47;;;8.04;100.00
48882;BME280;57063;51.406;-2.402;2023-04-06T05:45:56;100179.34;;;8.09;100.00
48882;BME280;57063;51.406;-2.402;2023-04-06T05:48:22;100186.16;;;8.10;100.00
48882;BME280;57063;51.406;-2.402;2023-04-06T05:50:49;100198.25;;;8.08;100.00
48882;BME280;57063;51.406;-2.402;2023-04-06T05:53:18;100194.94;;;8.06;100.00
48882;BME280;57063;51.406;-2.402;2023-04-06T05:55:43;100206.41;;;8.17;100.00
48882;BME280;57063;51.406;-2.402;2023-04-06T05:58:09;100200.78;;;8.26;100.00
48882;BME280;57063;51.406;-2.402;2023-04-06T06:00:34;100195.97;;;8.20;100.00
48882;BME280;57063;51.406;-2.402;2023-04-06T06:03:00;100209.44;;;8.25;100.00
48882;BME280;57063;51.406;-2.402;2023-04-06T06:05:25;100208.16;;;8.16;100.00
48882;BME280;57063;51.406;-2.402;2023-04-06T06:07:51;100212.00;;;8.25;100.00
48882;BME280;57063;51.406;-2.402;2023-04-06T06:10:17;100220.59;;;8.41;100.00
48882;BME280;57063;51.406;-2.402;2023-04-06T06:12:42;100213.97;;;8.20;100.00
48882;BME280;57063;51.406;-2.402;2023-04-06T06:15:08;100200.78;;;8.26;100.00
48882;BME280;57063;51.406;-2.402;2023-04-06T06:17:33;100211.25;;;8.23;100.00
48882;BME280;57063;51.406;-2.402;2023-04-06T06:19:59;100220.31;;;8.30;100.00
48882;BME280;57063;51.406;-2.402;2023-04-06T06:22:24;100223.41;;;8.36;100.00
48882;BME280;57063;51.406;-2.402;2023-04-06T06:24:50;100234.66;;;8.34;100.00
48882;BME280;57063;51.406;-2.402;2023-04-06T06:27:15;100230.56;;;8.47;100.00
48882;BME280;57063;51.406;-2.402;2023-04-06T06:29:41;100230.41;;;8.50;100.00
48882;BME280;57063;51.406;-2.402;2023-04-06T06:32:06;100225.84;;;8.55;100.00
48882;BME280;57063;51.406;-2.402;2023-04-06T06:34:34;100232.09;;;8.51;100.00
48882;BME280;57063;51.406;-2.402;2023-04-06T06:36:59;100233.91;;;8.49;100.00
48882;BME280;57063;51.406;-2.402;2023-04-06T06:39:25;100239.94;;;8.48;100.00
48882;BME280;57063;51.406;-2.402;2023-04-06T06:41:51;100246.28;;;8.59;100.00
48882;BME280;57063;51.406;-2.402;2023-04-06T06:44:16;100248.69;;;8.62;100.00
48882;BME280;57063;51.406;-2.402;2023-04-06T06:46:42;100256.00;;;8.53;100.00
48882;BME280;57063;51.406;-2.402;2023-04-06T06:49:07;100257.56;;;8.56;100.00
48882;BME280;57063;51.406;-2.402;2023-04-06T06:51:33;100251.25;;;8.62;100.00
48882;BME280;57063;51.406;-2.402;2023-04-06T06:53:58;100258.41;;;8.56;100.00
48882;BME280;57063;51.406;-2.402;2023-04-06T06:56:24;100267.41;;;8.81;100.00
48882;BME280;57063;51.406;-2.402;2023-04-06T06:58:51;100261.31;;;8.82;100.00
48882;BME280;57063;51.406;-2.402;2023-04-06T07:01:17;100253.22;;;9.06;100.00
48882;BME280;57063;51.406;-2.402;2023-04-06T07:03:42;100263.44;;;9.23;100.00
48882;BME280;57063;51.406;-2.402;2023-04-06T07:06:07;100247.03;;;9.24;100.00
48882;BME280;57063;51.406;-2.402;2023-04-06T07:08:33;100255.88;;;9.20;100.00
48882;BME280;57063;51.406;-2.402;2023-04-06T07:10:58;100261.78;;;9.22;100.00
48882;BME280;57063;51.406;-2.402;2023-04-06T07:13:24;100259.69;;;9.13;100.00
48882;BME280;57063;51.406;-2.402;2023-04-06T07:15:50;100271.16;;;9.07;100.00
48882;BME280;57063;51.406;-2.402;2023-04-06T07:18:16;100268.41;;;8.94;100.00
48882;BME280;57063;51.406;-2.402;2023-04-06T07:20:42;100258.19;;;9.09;100.00
48882;BME280;57063;51.406;-2.402;2023-04-06T07:23:07;100260.53;;;9.13;100.00
48882;BME280;57063;51.406;-2.402;2023-04-06T07:25:33;100271.66;;;9.14;100.00
48882;BME280;57063;51.406;-2.402;2023-04-06T07:27:58;100268.81;;;9.18;100.00
48882;BME280;57063;51.406;-2.402;2023-04-06T07:30:24;100262.69;;;9.21;100.00
48882;BME280;57063;51.406;-2.402;2023-04-06T07:32:51;100274.63;;;9.06;100.00
48882;BME280;57063;51.406;-2.402;2023-04-06T07:35:17;100270.50;;;9.19;100.00
48882;BME280;57063;51.406;-2.402;2023-04-06T07:37:42;100276.47;;;9.20;100.00
48882;BME280;57063;51.406;-2.402;2023-04-06T07:40:08;100269.66;;;9.19;100.00
48882;BME280;57063;51.406;-2.402;2023-04-06T07:42:33;100271.06;;;9.40;100.00
48882;BME280;57063;51.406;-2.402;2023-04-06T07:44:59;100285.63;;;9.41;100.00
48882;BME280;57063;51.406;-2.402;2023-04-06T07:47:24;100286.44;;;9.42;100.00
48882;BME280;57063;51.406;-2.402;2023-04-06T07:49:50;100282.94;;;9.59;100.00
48882;BME280;57063;51.406;-2.402;2023-04-06T07:52:15;100288.19;;;9.88;100.00
48882;BME280;57063;51.406;-2.402;2023-04-06T07:54:41;100291.31;;;10.23;100.00
48882;BME280;57063;51.406;-2.402;2023-04-06T07:57:07;100284.81;;;10.32;100.00
48882;BME280;57063;51.406;-2.402;2023-04-06T07:59:32;100284.31;;;10.25;100.00
48882;BME280;57063;51.406;-2.402;2023-04-06T08:01:58;100286.97;;;10.23;100.00
48882;BME280;57063;51.406;-2.402;2023-04-06T08:04:23;100281.72;;;10.25;100.00
48882;BME280;57063;51.406;-2.402;2023-04-06T08:06:48;100287.22;;;10.35;100.00
48882;BME280;57063;51.406;-2.402;2023-04-06T08:09:14;100293.50;;;10.45;100.00
48882;BME280;57063;51.406;-2.402;2023-04-06T08:11:39;100304.47;;;10.48;100.00
48882;BME280;57063;51.406;-2.402;2023-04-06T08:14:05;100292.94;;;10.54;100.00
48882;BME280;57063;51.406;-2.402;2023-04-06T08:16:31;100294.97;;;10.49;100.00
48882;BME280;57063;51.406;-2.402;2023-04-06T08:18:56;100299.94;;;10.66;100.00
48882;BME280;57063;51.406;-2.402;2023-04-06T08:21:22;100295.06;;;10.90;100.00
48882;BME280;57063;51.406;-2.402;2023-04-06T08:23:47;100300.50;;;11.00;100.00
48882;BME280;57063;51.406;-2.402;2023-04-06T08:26:12;100300.34;;;11.57;100.00
48882;BME280;57063;51.406;-2.402;2023-04-06T08:28:38;100289.88;;;11.86;99.14
48882;BME280;57063;51.406;-2.402;2023-04-06T08:31:04;100302.00;;;12.51;94.62
48882;BME280;57063;51.406;-2.402;2023-04-06T08:33:30;100300.09;;;12.92;92.80
48882;BME280;57063;51.406;-2.402;2023-04-06T08:35:56;100308.13;;;13.98;87.46
48882;BME280;57063;51.406;-2.402;2023-04-06T08:38:22;100307.16;;;14.34;82.72
48882;BME280;57063;51.406;-2.402;2023-04-06T08:40:47;100321.78;;;14.35;80.70
48882;BME280;57063;51.406;-2.402;2023-04-06T08:43:17;100323.25;;;14.95;78.10
48882;BME280;57063;51.406;-2.402;2023-04-06T08:45:45;100311.41;;;15.25;74.87
48882;BME280;57063;51.406;-2.402;2023-04-06T08:48:11;100310.84;;;15.10;72.38
48882;BME280;57063;51.406;-2.402;2023-04-06T08:50:38;100324.94;;;16.37;71.85
48882;BME280;57063;51.406;-2.402;2023-04-06T08:53:05;100313.25;;;17.33;65.21
48882;BME280;57063;51.406;-2.402;2023-04-06T08:55:31;100313.44;;;17.61;63.50
48882;BME280;57063;51.406;-2.402;2023-04-06T08:57:58;100321.09;;;18.30;60.00
48882;BME280;57063;51.406;-2.402;2023-04-06T09:00:25;100327.31;;;18.76;57.94
48882;BME280;57063;51.406;-2.402;2023-04-06T09:02:52;100325.97;;;19.00;55.90
48882;BME280;57063;51.406;-2.402;2023-04-06T09:05:19;100332.91;;;19.09;57.06
48882;BME280;57063;51.406;-2.402;2023-04-06T09:07:44;100325.63;;;18.75;56.81
48882;BME280;57063;51.406;-2.402;2023-04-06T09:10:10;100327.13;;;19.15;55.35
48882;BME280;57063;51.406;-2.402;2023-04-06T09:12:35;100321.81;;;19.71;53.86
48882;BME280;57063;51.406;-2.402;2023-04-06T09:15:01;100321.63;;;20.94;53.91
48882;BME280;57063;51.406;-2.402;2023-04-06T09:17:31;100334.28;;;21.58;48.94
48882;BME280;57063;51.406;-2.402;2023-04-06T09:19:59;100334.41;;;21.32;49.72
48882;BME280;57063;51.406;-2.402;2023-04-06T09:22:25;100342.50;;;21.04;48.68
48882;BME280;57063;51.406;-2.402;2023-04-06T09:24:53;100340.63;;;20.80;48.96
48882;BME280;57063;51.406;-2.402;2023-04-06T09:27:32;100333.19;;;21.10;48.48
48882;BME280;57063;51.406;-2.402;2023-04-06T09:32:30;100348.03;;;20.93;47.76
48882;BME280;57063;51.406;-2.402;2023-04-06T09:35:09;100352.47;;;20.58;49.26
48882;BME280;57063;51.406;-2.402;2023-04-06T09:37:34;100345.06;;;19.92;50.24
48882;BME280;57063;51.406;-2.402;2023-04-06T09:40:07;100354.53;;;20.28;48.78
48882;BME280;57063;51.406;-2.402;2023-04-06T09:42:34;100350.88;;;21.00;47.56
48882;BME280;57063;51.406;-2.402;2023-04-06T09:45:03;100346.13;;;22.11;46.05
48882;BME280;57063;51.406;-2.402;2023-04-06T09:47:30;100355.34;;;21.66;45.89
48882;BME280;57063;51.406;-2.402;2023-04-06T09:49:57;100348.78;;;20.77;44.68
48882;BME280;57063;51.406;-2.402;2023-04-06T09:52:32;100356.28;;;19.66;47.71
48882;BME280;57063;51.406;-2.402;2023-04-06T09:55:03;100361.25;;;18.20;48.63
48882;BME280;57063;51.406;-2.402;2023-04-06T09:57:36;100365.00;;;17.28;52.50
48882;BME280;57063;51.406;-2.402;2023-04-06T10:00:07;100352.19;;;17.15;55.29
48882;BME280;57063;51.406;-2.402;2023-04-06T10:02:45;100350.00;;;18.00;52.32
48882;BME280;57063;51.406;-2.402;2023-04-06T10:05:27;100360.69;;;18.26;54.60
48882;BME280;57063;51.406;-2.402;2023-04-06T10:07:57;100357.69;;;18.01;52.46
48882;BME280;57063;51.406;-2.402;2023-04-06T10:10:23;100365.22;;;17.75;52.84
48882;BME280;57063;51.406;-2.402;2023-04-06T10:12:48;100366.53;;;17.40;53.61
48882;BME280;57063;51.406;-2.402;2023-04-06T10:15:15;100364.44;;;17.24;54.22
48882;BME280;57063;51.406;-2.402;2023-04-06T10:17:41;100367.22;;;17.42;54.26
48882;BME280;57063;51.406;-2.402;2023-04-06T10:20:18;100360.72;;;16.86;54.46
48882;BME280;57063;51.406;-2.402;2023-04-06T10:25:56;100363.53;;;16.53;56.90
48882;BME280;57063;51.406;-2.402;2023-04-06T10:28:23;100380.09;;;15.89;58.37
48882;BME280;57063;51.406;-2.402;2023-04-06T10:31:09;100364.03;;;15.72;59.12
48882;BME280;57063;51.406;-2.402;2023-04-06T10:41:53;100377.38;;;15.24;62.09
48882;BME280;57063;51.406;-2.402;2023-04-06T10:44:23;100363.41;;;15.14;61.11
48882;BME280;57063;51.406;-2.402;2023-04-06T10:46:53;100366.97;;;14.90;61.83
48882;BME280;57063;51.406;-2.402;2023-04-06T10:49:20;100387.44;;;15.83;61.08
48882;BME280;57063;51.406;-2.402;2023-04-06T10:51:53;100358.78;;;15.95;60.45
48882;BME280;57063;51.406;-2.402;2023-04-06T10:54:24;100360.50;;;15.73;59.84
48882;BME280;57063;51.406;-2.402;2023-04-06T10:56:51;100370.44;;;15.57;59.02
48882;BME280;57063;51.406;-2.402;2023-04-06T10:59:21;100365.03;;;15.37;58.87
48882;BME280;57063;51.406;-2.402;2023-04-06T11:01:47;100373.09;;;15.23;61.26
48882;BME280;57063;51.406;-2.402;2023-04-06T11:04:16;100371.78;;;15.29;59.52
48882;BME280;57063;51.406;-2.402;2023-04-06T11:06:46;100370.78;;;16.07;61.04
48882;BME280;57063;51.406;-2.402;2023-04-06T11:09:25;100376.75;;;17.13;55.16
48882;BME280;57063;51.406;-2.402;2023-04-06T11:11:51;100374.41;;;17.60;54.40
48882;BME280;57063;51.406;-2.402;2023-04-06T11:14:23;100379.44;;;17.01;54.24
48882;BME280;57063;51.406;-2.402;2023-04-06T11:17:10;100397.91;;;16.67;52.97
48882;BME280;57063;51.406;-2.402;2023-04-06T11:19:40;100416.09;;;15.61;60.03
48882;BME280;57063;51.406;-2.402;2023-04-06T11:22:07;100398.34;;;14.65;65.45
48882;BME280;57063;51.406;-2.402;2023-04-06T11:24:33;100419.41;;;13.53;69.29
48882;BME280;57063;51.406;-2.402;2023-04-06T11:26:59;100407.22;;;13.16;71.58
48882;BME280;57063;51.406;-2.402;2023-04-06T11:29:28;100408.78;;;12.93;74.38
48882;BME280;57063;51.406;-2.402;2023-04-06T11:31:58;100415.19;;;12.62;75.85
48882;BME280;57063;51.406;-2.402;2023-04-06T11:34:25;100405.13;;;13.21;76.62
48882;BME280;57063;51.406;-2.402;2023-04-06T11:37:00;100401.41;;;13.99;77.18
48882;BME280;57063;51.406;-2.402;2023-04-06T11:39:28;100392.94;;;15.02;72.23
48882;BME280;57063;51.406;-2.402;2023-04-06T11:42:25;100392.84;;;16.45;65.62
48882;BME280;57063;51.406;-2.402;2023-04-06T11:45:00;100387.88;;;17.74;61.88
48882;BME280;57063;51.406;-2.402;2023-04-06T11:47:33;100394.13;;;18.03;59.82
48882;BME280;57063;51.406;-2.402;2023-04-06T11:50:09;100400.97;;;18.23;60.37
48882;BME280;57063;51.406;-2.402;2023-04-06T11:52:41;100386.97;;;18.14;55.91
48882;BME280;57063;51.406;-2.402;2023-04-06T11:55:15;100386.69;;;18.27;57.12
48882;BME280;57063;51.406;-2.402;2023-04-06T11:57:41;100389.34;;;18.84;57.78
48882;BME280;57063;51.406;-2.402;2023-04-06T12:00:08;100391.41;;;18.90;55.33
48882;BME280;57063;51.406;-2.402;2023-04-06T12:02:49;100391.41;;;18.90;53.73
48882;BME280;57063;51.406;-2.402;2023-04-06T12:05:18;100383.50;;;19.28;52.76
48882;BME280;57063;51.406;-2.402;2023-04-06T13:01:05;100429.72;;;18.04;52.11
48882;BME280;57063;51.406;-2.402;2023-04-06T13:10:04;100425.94;;;15.35;58.57
48882;BME280;57063;51.406;-2.402;2023-04-06T13:13:17;100439.00;;;14.42;59.47
48882;BME280;57063;51.406;-2.402;2023-04-06T13:15:48;100450.59;;;13.77;61.14
48882;BME280;57063;51.406;-2.402;2023-04-06T13:22:01;100459.16;;;12.36;69.91
48882;BME280;57063;51.406;-2.402;2023-04-06T13:25:05;100444.75;;;12.05;75.15
48882;BME280;57063;51.406;-2.402;2023-04-06T13:27:37;100445.63;;;11.91;76.36
48882;BME280;57063;51.406;-2.402;2023-04-06T13:30:03;100439.72;;;11.89;74.68
48882;BME280;57063;51.406;-2.402;2023-04-06T13:32:41;100450.06;;;11.61;75.66
48882;BME280;57063;51.406;-2.402;2023-04-06T14:45:54;100459.94;;;11.83;81.88
48882;BME280;57063;51.406;-2.402;2023-04-06T15:02:14;100474.34;;;12.68;75.21
48882;BME280;57063;51.406;-2.402;2023-04-06T15:08:15;100478.34;;;12.19;76.17
48882;BME280;57063;51.406;-2.402;2023-04-06T15:11:20;100472.03;;;11.68;79.87
48882;BME280;57063;51.406;-2.402;2023-04-06T15:16:41;100463.00;;;11.89;77.46
48882;BME280;57063;51.406;-2.402;2023-04-06T15:54:00;100492.28;;;11.61;73.63
48882;BME280;57063;51.406;-2.402;2023-04-06T16:22:47;100511.56;;;11.27;85.47
48882;BME280;57063;51.406;-2.402;2023-04-06T16:25:19;100516.91;;;11.24;83.00
48882;BME280;57063;51.406;-2.402;2023-04-06T18:47:33;100703.44;;;8.56;87.47
48882;BME280;57063;51.406;-2.402;2023-04-06T19:34:42;100781.22;;;8.43;86.60